Terminal Aerodrome Forecast
Issued by NWS Mt. Holly, NJ

Home | Current Version | Previous Version | Text Only | Print | Product List | Glossary On
Versions: 1 2 3 4 5 6 7 8 9 10 11 12 13 14 15 16 17 18 19 20 21 22 23 24 25 26 27 28 29
000
FTUS41 KPHI 270500 RRA
TAFILG
TAF
KILG 270556Z 2706/2806 36012G20KT 6SM -SN SCT020 OVC035
      TEMPO 2708/2712 3SM -SN BKN020 OVC030
     FM271200 33014G23KT 6SM -SN OVC020
     FM271600 33016G26KT P6SM SCT020 BKN080
     FM280400 31013KT P6SM FEW025=

USA.gov is the U.S. government's official web portal to all federal, state and local government web resources and services.